Snow/Ice From: 17-12-2017 10:00 Until: 18-12-2017 06:00 warning for: Snow/Ice Level: Yellow info button

Although rather usual in this region, locally or potentially dangerous phenomena are expected. (such as local winds, summer thunderstorms, rising streams or high waves) Be aware and pay attention to the latest weather updates, especially if you carry out activities exposed to weather or close to a stream or shoreline. 


Meteo18 Weather Cam more information Meteo18 Weather Cam


Thunder radar more information blitzortung!


warning for Snow/Ice more information rain snow radar


Visit our other weather sites:

Template documentation
and downloads

And another site



Weather Underground History page Text

Daily Summary for September 20, 2016 Units:  Metric    English   Both
« Previous Day
Next Day »
Daily Weekly Monthly Yearly Custom
  High: Low: Average:
Temperature: 20.6 °C 10.9 °C 15.7 °C
Dew Point: 13.4 °C 8.4 °C 11.4 °C
Humidity: 96 % 49 % 77 %
Wind Speed: 17.7 km/h 0.0 km/h 3.6 km/h
Wind Gust: 27.4 km/h - -
Wind:- - South
Pressure: 1018.2 hPa 1016.1 hPa -
Precipitation: 0.0 mm    
Historical Graphs
 
 
Tabular Data for September 20, 2016
Time Temperature Dew Point Pressure Wind Wind Speed Wind Gust Humidity Rainfall Rate (Hourly)
00:02 15.4 °C 13.2 °C 1018.2 hPa NNW 1.6 km/h 6.4 km/h 87 % 0.0 mm
00:07 15.4 °C 13.2 °C 1018.2 hPa Calm   4.8 km/h 87 % 0.0 mm
00:12 15.4 °C 13.2 °C 1018.2 hPa NNW 4.8 km/h 4.8 km/h 87 % 0.0 mm
00:17 15.4 °C 13.2 °C 1018.2 hPa Calm   4.8 km/h 87 % 0.0 mm
00:27 15.3 °C 13.3 °C 1018.2 hPa Calm   8.0 km/h 88 % 0.0 mm
00:32 15.3 °C 13.3 °C 1018.2 hPa Calm   4.8 km/h 88 % 0.0 mm
00:42 15.1 °C 13.3 °C 1018.2 hPa Calm   1.6 km/h 89 % 0.0 mm
00:47 15.1 °C 13.3 °C 1018.2 hPa Calm   1.6 km/h 89 % 0.0 mm
00:52 15.1 °C 13.3 °C 1018.2 hPa Calm   1.6 km/h 89 % 0.0 mm
00:57 15.0 °C 13.2 °C 1018.2 hPa NNW 1.6 km/h 1.6 km/h 89 % 0.0 mm
01:02 15.0 °C 13.4 °C 1018.2 hPa Calm   1.6 km/h 90 % 0.0 mm
01:07 15.0 °C 13.4 °C 1018.2 hPa NNW 1.6 km/h 3.2 km/h 90 % 0.0 mm
01:12 15.0 °C 13.4 °C 1018.2 hPa NW 1.6 km/h 3.2 km/h 90 % 0.0 mm
01:22 15.1 °C 13.3 °C 1018.2 hPa NNW 1.6 km/h 4.8 km/h 89 % 0.0 mm
01:27 15.1 °C 13.3 °C 1018.2 hPa Calm   4.8 km/h 89 % 0.0 mm
01:32 15.1 °C 13.3 °C 1018.2 hPa North 1.6 km/h 4.8 km/h 89 % 0.0 mm
01:37 15.1 °C 13.3 °C 1018.2 hPa NE 1.6 km/h 4.8 km/h 89 % 0.0 mm
01:47 15.1 °C 13.3 °C 1017.8 hPa Calm   6.4 km/h 89 % 0.0 mm
01:52 15.0 °C 13.2 °C 1017.8 hPa NW 3.2 km/h 6.4 km/h 89 % 0.0 mm
01:57 15.0 °C 13.2 °C 1017.8 hPa NNE 3.2 km/h 6.4 km/h 89 % 0.0 mm
02:02 14.9 °C 13.1 °C 1017.8 hPa NNW 4.8 km/h 6.4 km/h 89 % 0.0 mm
02:07 14.9 °C 13.1 °C 1017.8 hPa NNW 1.6 km/h 6.4 km/h 89 % 0.0 mm
02:17 14.7 °C 12.9 °C 1017.8 hPa Calm   6.4 km/h 89 % 0.0 mm
02:22 14.7 °C 13.1 °C 1017.8 hPa Calm   4.8 km/h 90 % 0.0 mm
02:27 14.6 °C 13.0 °C 1017.8 hPa NNW 1.6 km/h 4.8 km/h 90 % 0.0 mm
02:42 14.4 °C 12.8 °C 1017.8 hPa Calm   3.2 km/h 90 % 0.0 mm
02:52 14.3 °C 12.7 °C 1017.8 hPa Calm   3.2 km/h 90 % 0.0 mm
02:57 14.3 °C 12.9 °C 1017.8 hPa Calm   3.2 km/h 91 % 0.0 mm
03:02 14.2 °C 12.8 °C 1017.8 hPa Calm   3.2 km/h 91 % 0.0 mm
03:07 14.2 °C 12.8 °C 1017.8 hPa Calm   1.6 km/h 91 % 0.0 mm
03:12 14.0 °C 12.6 °C 1017.8 hPa Calm   1.6 km/h 91 % 0.0 mm
03:17 13.9 °C 12.5 °C 1017.8 hPa Calm     91 % 0.0 mm
03:22 13.8 °C 12.4 °C 1017.8 hPa Calm     91 % 0.0 mm
03:32 13.6 °C 12.3 °C 1017.8 hPa North 3.2 km/h   92 % 0.0 mm
03:37 13.4 °C 12.1 °C 1017.8 hPa WNW 1.6 km/h 3.2 km/h 92 % 0.0 mm
03:42 13.3 °C 12.0 °C 1017.8 hPa NNW 3.2 km/h 4.8 km/h 92 % 0.0 mm
03:47 13.2 °C 11.9 °C 1017.8 hPa North 3.2 km/h 4.8 km/h 92 % 0.0 mm
03:52 13.2 °C 11.9 °C 1017.8 hPa North 1.6 km/h 4.8 km/h 92 % 0.0 mm
03:57 13.1 °C 12.0 °C 1017.8 hPa Calm   4.8 km/h 93 % 0.0 mm
04:07 13.1 °C 12.0 °C 1017.8 hPa NNW 3.2 km/h 3.2 km/h 93 % 0.0 mm
04:12 13.0 °C 11.7 °C 1017.8 hPa NW 1.6 km/h 3.2 km/h 92 % 0.0 mm
04:17 12.9 °C 11.6 °C 1017.8 hPa NW 1.6 km/h 4.8 km/h 92 % 0.0 mm
04:22 12.9 °C 11.6 °C 1017.8 hPa WNW 4.8 km/h 4.8 km/h 92 % 0.0 mm
04:27 12.9 °C 11.6 °C 1017.8 hPa WNW 1.6 km/h 4.8 km/h 92 % 0.0 mm
04:32 12.9 °C 11.6 °C 1017.5 hPa NW 3.2 km/h 4.8 km/h 92 % 0.0 mm
04:42 12.5 °C 11.1 °C 1017.5 hPa NW 1.6 km/h 4.8 km/h 91 % 0.0 mm
04:47 12.4 °C 11.3 °C 1017.5 hPa North 1.6 km/h 4.8 km/h 93 % 0.0 mm
04:52 12.4 °C 11.3 °C 1017.5 hPa North 3.2 km/h 4.8 km/h 93 % 0.0 mm
04:57 12.4 °C 11.3 °C 1017.5 hPa NW 1.6 km/h 4.8 km/h 93 % 0.0 mm
05:02 12.4 °C 11.3 °C 1017.5 hPa Calm   4.8 km/h 93 % 0.0 mm
05:12 12.2 °C 10.9 °C 1017.5 hPa Calm   3.2 km/h 92 % 0.0 mm
05:17 12.1 °C 11.0 °C 1017.5 hPa Calm   3.2 km/h 93 % 0.0 mm
05:22 12.1 °C 11.0 °C 1017.5 hPa Calm   3.2 km/h 93 % 0.0 mm
05:32 12.1 °C 11.0 °C 1017.5 hPa Calm   3.2 km/h 93 % 0.0 mm
05:42 11.9 °C 10.8 °C 1017.5 hPa Calm   4.8 km/h 93 % 0.0 mm
05:52 11.9 °C 11.0 °C 1017.5 hPa Calm   3.2 km/h 94 % 0.0 mm
05:57 11.8 °C 10.9 °C 1017.5 hPa Calm     94 % 0.0 mm
06:02 11.7 °C 10.8 °C 1017.5 hPa NW 1.6 km/h   94 % 0.0 mm
06:12 11.5 °C 10.6 °C 1017.5 hPa Calm   1.6 km/h 94 % 0.0 mm
06:17 11.6 °C 10.8 °C 1017.5 hPa Calm   3.2 km/h 95 % 0.0 mm
06:22 11.8 °C 11.0 °C 1017.5 hPa Calm   3.2 km/h 95 % 0.0 mm
06:32 11.6 °C 10.7 °C 1017.2 hPa Calm   1.6 km/h 94 % 0.0 mm
06:52 11.3 °C 10.5 °C 1017.2 hPa Calm     95 % 0.0 mm
06:57 11.3 °C 10.5 °C 1017.2 hPa Calm     95 % 0.0 mm
07:02 11.2 °C 10.4 °C 1017.2 hPa Calm     95 % 0.0 mm
07:12 10.9 °C 10.1 °C 1017.2 hPa Calm     95 % 0.0 mm
07:17 11.1 °C 10.5 °C 1017.2 hPa Calm     96 % 0.0 mm
07:22 11.2 °C 10.6 °C 1017.2 hPa Calm     96 % 0.0 mm
07:32 11.2 °C 10.4 °C 1017.2 hPa Calm     95 % 0.0 mm
07:42 11.1 °C 10.3 °C 1017.2 hPa Calm     95 % 0.0 mm
07:47 11.0 °C 10.4 °C 1017.2 hPa Calm     96 % 0.0 mm
07:52 11.1 °C 10.5 °C 1017.2 hPa Calm     96 % 0.0 mm
08:02 11.3 °C 10.7 °C 1017.2 hPa Calm     96 % 0.0 mm
08:12 11.6 °C 11.0 °C 1017.2 hPa Calm     96 % 0.0 mm
08:27 11.8 °C 11.0 °C 1017.2 hPa Calm     95 % 0.0 mm
08:32 11.9 °C 11.1 °C 1017.2 hPa Calm     95 % 0.0 mm
08:42 12.2 °C 11.4 °C 1017.2 hPa Calm     95 % 0.0 mm
08:52 12.5 °C 11.7 °C 1017.2 hPa Calm     95 % 0.0 mm
08:57 12.6 °C 11.8 °C 1017.2 hPa Calm     95 % 0.0 mm
09:02 12.7 °C 11.8 °C 1017.2 hPa Calm     94 % 0.0 mm
09:17 13.2 °C 12.1 °C 1017.2 hPa Calm     93 % 0.0 mm
09:22 13.3 °C 12.2 °C 1017.2 hPa Calm     93 % 0.0 mm
09:27 13.6 °C 12.2 °C 1017.2 hPa Calm     91 % 0.0 mm
09:32 13.8 °C 12.4 °C 1017.5 hPa Calm     91 % 0.0 mm
09:42 14.2 °C 12.6 °C 1017.5 hPa Calm   3.2 km/h 90 % 0.0 mm
09:47 14.4 °C 12.6 °C 1017.5 hPa Calm   3.2 km/h 89 % 0.0 mm
09:52 14.8 °C 13.0 °C 1017.5 hPa Calm   3.2 km/h 89 % 0.0 mm
10:02 15.8 °C 12.4 °C 1017.5 hPa North 1.6 km/h 1.6 km/h 80 % 0.0 mm
10:12 16.1 °C 12.3 °C 1017.5 hPa North 3.2 km/h 6.4 km/h 78 % 0.0 mm
10:22 16.2 °C 12.4 °C 1017.8 hPa NNE 6.4 km/h 8.0 km/h 78 % 0.0 mm
10:32 16.9 °C 11.8 °C 1017.8 hPa NW 1.6 km/h 8.0 km/h 72 % 0.0 mm
10:42 16.9 °C 11.6 °C 1017.8 hPa NNW 4.8 km/h 11.3 km/h 71 % 0.0 mm
10:47 17.0 °C 11.3 °C 1017.8 hPa NE 4.8 km/h 12.9 km/h 69 % 0.0 mm
10:52 17.1 °C 11.6 °C 1017.8 hPa NE 9.7 km/h 12.9 km/h 70 % 0.0 mm
10:57 17.2 °C 10.8 °C 1017.8 hPa NE 11.3 km/h 12.9 km/h 66 % 0.0 mm
11:02 17.3 °C 10.9 °C 1017.8 hPa North 3.2 km/h 12.9 km/h 66 % 0.0 mm
11:07 17.4 °C 11.0 °C 1017.8 hPa NE 9.7 km/h 16.1 km/h 66 % 0.0 mm
11:12 17.4 °C 11.2 °C 1017.8 hPa NW 8.0 km/h 12.9 km/h 67 % 0.0 mm
11:17 17.5 °C 11.1 °C 1017.8 hPa NE 4.8 km/h 11.3 km/h 66 % 0.0 mm
11:22 17.7 °C 11.3 °C 1017.8 hPa NE 4.8 km/h 11.3 km/h 66 % 0.0 mm
11:27 17.8 °C 11.1 °C 1017.8 hPa NE 1.6 km/h 11.3 km/h 65 % 0.0 mm
11:37 17.7 °C 10.8 °C 1018.2 hPa North 4.8 km/h 12.9 km/h 64 % 0.0 mm
11:42 17.6 °C 10.5 °C 1017.8 hPa NNW 8.0 km/h 12.9 km/h 63 % 0.0 mm
11:47 17.4 °C 10.5 °C 1018.2 hPa NE 3.2 km/h 12.9 km/h 64 % 0.0 mm
11:52 17.3 °C 10.4 °C 1018.2 hPa NNE 9.7 km/h 16.1 km/h 64 % 0.0 mm
11:57 17.2 °C 10.8 °C 1018.2 hPa NNE 8.0 km/h 16.1 km/h 66 % 0.0 mm
12:02 17.3 °C 11.6 °C 1018.2 hPa NE 4.8 km/h 16.1 km/h 69 % 0.0 mm
12:12 17.5 °C 11.1 °C 1017.8 hPa NW 9.7 km/h 12.9 km/h 66 % 0.0 mm
12:17 17.6 °C 10.7 °C 1017.8 hPa NNW 8.0 km/h 12.9 km/h 64 % 0.0 mm
12:22 17.6 °C 10.5 °C 1017.8 hPa NNE 11.3 km/h 11.3 km/h 63 % 0.0 mm
12:27 17.7 °C 10.3 °C 1017.8 hPa NE 8.0 km/h 11.3 km/h 62 % 0.0 mm
12:32 17.7 °C 10.6 °C 1017.8 hPa NNE 11.3 km/h 14.5 km/h 63 % 0.0 mm
12:42 17.8 °C 10.2 °C 1017.8 hPa North 6.4 km/h 17.7 km/h 61 % 0.0 mm
12:47 17.9 °C 10.3 °C 1017.8 hPa NNW 1.6 km/h 17.7 km/h 61 % 0.0 mm
12:52 18.2 °C 10.3 °C 1017.8 hPa NNW 8.0 km/h 14.5 km/h 60 % 0.0 mm
12:57 18.3 °C 10.1 °C 1017.8 hPa NE 9.7 km/h 16.1 km/h 59 % 0.0 mm
13:02 18.2 °C 10.6 °C 1017.8 hPa NE 8.0 km/h 16.1 km/h 61 % 0.0 mm
13:07 18.2 °C 10.6 °C 1017.8 hPa NNW 8.0 km/h 16.1 km/h 61 % 0.0 mm
13:17 18.6 °C 10.7 °C 1017.8 hPa North 6.4 km/h 14.5 km/h 60 % 0.0 mm
13:22 18.7 °C 9.7 °C 1017.8 hPa NE 6.4 km/h 14.5 km/h 56 % 0.0 mm
13:27 18.8 °C 10.4 °C 1017.5 hPa NNE 6.4 km/h 17.7 km/h 58 % 0.0 mm
13:32 19.1 °C 10.1 °C 1017.5 hPa NE 3.2 km/h 17.7 km/h 56 % 0.0 mm
13:37 18.9 °C 10.5 °C 1017.5 hPa NNW 4.8 km/h 12.9 km/h 58 % 0.0 mm
13:42 19.0 °C 10.3 °C 1017.5 hPa NNW 6.4 km/h 12.9 km/h 57 % 0.0 mm
13:47 19.1 °C 10.4 °C 1017.5 hPa NE 8.0 km/h 16.1 km/h 57 % 0.0 mm
13:52 19.2 °C 10.2 °C 1017.5 hPa NNW 14.5 km/h 17.7 km/h 56 % 0.0 mm
13:57 19.3 °C 10.3 °C 1017.5 hPa North 12.9 km/h 17.7 km/h 56 % 0.0 mm
14:02 19.3 °C 9.8 °C 1017.2 hPa NNW 4.8 km/h 17.7 km/h 54 % 0.0 mm
14:07 19.4 °C 10.7 °C 1017.2 hPa NNE 1.6 km/h 17.7 km/h 57 % 0.0 mm
14:12 19.6 °C 10.3 °C 1017.2 hPa NNW 3.2 km/h 17.7 km/h 55 % 0.0 mm
14:22 19.4 °C 9.9 °C 1017.2 hPa WNW 9.7 km/h 17.7 km/h 54 % 0.0 mm
14:27 19.3 °C 10.0 °C 1017.2 hPa NNW 11.3 km/h 17.7 km/h 55 % 0.0 mm
14:32 19.4 °C 10.4 °C 1017.2 hPa NNW 9.7 km/h 17.7 km/h 56 % 0.0 mm
14:42 19.7 °C 10.1 °C 1017.2 hPa NW 8.0 km/h 17.7 km/h 54 % 0.0 mm
14:47 19.8 °C 10.2 °C 1016.8 hPa NNW 12.9 km/h 17.7 km/h 54 % 0.0 mm
14:52 19.9 °C 10.3 °C 1016.8 hPa North 9.7 km/h 17.7 km/h 54 % 0.0 mm
14:57 19.9 °C 10.3 °C 1016.8 hPa ENE 8.0 km/h 17.7 km/h 54 % 0.0 mm
15:02 19.9 °C 10.3 °C 1016.8 hPa WNW 4.8 km/h 17.7 km/h 54 % 0.0 mm
15:12 20.4 °C 10.2 °C 1016.8 hPa NNE 11.3 km/h 12.9 km/h 52 % 0.0 mm
15:17 20.4 °C 10.2 °C 1016.8 hPa WNW 3.2 km/h 17.7 km/h 52 % 0.0 mm
15:22 20.3 °C 10.7 °C 1016.5 hPa NNW 4.8 km/h 17.7 km/h 54 % 0.0 mm
15:32 20.2 °C 9.4 °C 1016.5 hPa NNW 6.4 km/h 16.1 km/h 50 % 0.0 mm
15:37 20.1 °C 9.4 °C 1016.5 hPa NNW 4.8 km/h 16.1 km/h 50 % 0.0 mm
15:42 20.3 °C 9.2 °C 1016.1 hPa North 4.8 km/h 16.1 km/h 49 % 0.0 mm
15:47 20.1 °C 9.6 °C 1016.1 hPa NE 4.8 km/h 14.5 km/h 51 % 0.0 mm
15:52 19.9 °C 9.8 °C 1016.1 hPa NNE 14.5 km/h 14.5 km/h 52 % 0.0 mm
16:12 20.4 °C 10.5 °C 1016.1 hPa NNW 9.7 km/h 16.1 km/h 53 % 0.0 mm
16:17 20.6 °C 9.8 °C 1016.1 hPa NNW 8.0 km/h 17.7 km/h 50 % 0.0 mm
16:22 20.4 °C 10.2 °C 1016.1 hPa Calm   17.7 km/h 52 % 0.0 mm
16:27 20.5 °C 9.7 °C 1016.1 hPa North 6.4 km/h 20.9 km/h 50 % 0.0 mm
16:32 20.3 °C 9.8 °C 1016.1 hPa NNW 11.3 km/h 20.9 km/h 51 % 0.0 mm
16:42 19.3 °C 10.0 °C 1016.1 hPa North 9.7 km/h 27.4 km/h 55 % 0.0 mm
16:47 18.9 °C 9.1 °C 1016.1 hPa NNE 17.7 km/h 27.4 km/h 53 % 0.0 mm
16:52 18.8 °C 8.4 °C 1016.1 hPa NNE 11.3 km/h 27.4 km/h 51 % 0.0 mm
16:57 18.8 °C 9.3 °C 1016.1 hPa NNW 4.8 km/h 27.4 km/h 54 % 0.0 mm
17:02 18.7 °C 9.2 °C 1016.1 hPa NE 6.4 km/h 27.4 km/h 54 % 0.0 mm
17:07 18.5 °C 9.0 °C 1016.1 hPa NE 9.7 km/h 17.7 km/h 54 % 0.0 mm
17:17 18.3 °C 10.1 °C 1016.1 hPa NNW 8.0 km/h 17.7 km/h 59 % 0.0 mm
17:22 18.3 °C 10.6 °C 1016.1 hPa NNW 4.8 km/h 17.7 km/h 61 % 0.0 mm
17:27 18.4 °C 10.7 °C 1016.1 hPa NNW 9.7 km/h 16.1 km/h 61 % 0.0 mm
17:32 18.5 °C 10.8 °C 1016.1 hPa NNE 8.0 km/h 16.1 km/h 61 % 0.0 mm
17:37 18.4 °C 11.0 °C 1016.1 hPa NNE 11.3 km/h 16.1 km/h 62 % 0.0 mm
17:42 18.3 °C 11.1 °C 1016.1 hPa NNW 9.7 km/h 16.1 km/h 63 % 0.0 mm
17:52 18.5 °C 10.8 °C 1016.1 hPa NE 11.3 km/h 11.3 km/h 61 % 0.0 mm
17:57 18.7 °C 11.3 °C 1016.1 hPa NNW 6.4 km/h 12.9 km/h 62 % 0.0 mm
18:02 18.9 °C 11.5 °C 1016.1 hPa North 6.4 km/h 12.9 km/h 62 % 0.0 mm
18:07 19.0 °C 11.6 °C 1016.1 hPa NW 4.8 km/h 17.7 km/h 62 % 0.0 mm
18:12 18.8 °C 11.6 °C 1016.1 hPa NE 11.3 km/h 17.7 km/h 63 % 0.0 mm
18:17 18.4 °C 11.7 °C 1016.1 hPa NNW 6.4 km/h 17.7 km/h 65 % 0.0 mm
18:22 18.2 °C 12.2 °C 1016.1 hPa NE 9.7 km/h 22.5 km/h 68 % 0.0 mm
18:27 17.9 °C 12.4 °C 1016.1 hPa NE 11.3 km/h 22.5 km/h 70 % 0.0 mm
18:32 17.7 °C 12.4 °C 1016.1 hPa NE 8.0 km/h 19.3 km/h 71 % 0.0 mm
18:37 17.5 °C 12.4 °C 1016.1 hPa NNE 3.2 km/h 19.3 km/h 72 % 0.0 mm
18:42 17.4 °C 12.3 °C 1016.1 hPa NE 9.7 km/h 16.1 km/h 72 % 0.0 mm
18:47 17.4 °C 12.1 °C 1016.1 hPa NNW 6.4 km/h 14.5 km/h 71 % 0.0 mm
18:52 17.3 °C 12.2 °C 1016.1 hPa Calm   14.5 km/h 72 % 0.0 mm
18:57 17.3 °C 12.2 °C 1016.1 hPa NE 4.8 km/h 14.5 km/h 72 % 0.0 mm
19:02 17.3 °C 12.2 °C 1016.1 hPa NNE 1.6 km/h 14.5 km/h 72 % 0.0 mm
19:12 17.3 °C 12.2 °C 1016.5 hPa NW 3.2 km/h 14.5 km/h 72 % 0.0 mm
19:17 17.2 °C 12.1 °C 1016.1 hPa NNE 6.4 km/h 14.5 km/h 72 % 0.0 mm
19:22 17.3 °C 12.2 °C 1016.1 hPa NE 8.0 km/h 14.5 km/h 72 % 0.0 mm
19:27 17.2 °C 12.3 °C 1016.5 hPa NNE 6.4 km/h 12.9 km/h 73 % 0.0 mm
19:32 17.1 °C 12.4 °C 1016.5 hPa NE 1.6 km/h 12.9 km/h 74 % 0.0 mm
19:37 16.9 °C 12.2 °C 1016.5 hPa NE 4.8 km/h 14.5 km/h 74 % 0.0 mm
19:57 16.4 °C 12.4 °C 1016.5 hPa NE 8.0 km/h 12.9 km/h 77 % 0.0 mm
20:02 16.3 °C 12.5 °C 1016.5 hPa NNE 4.8 km/h 12.9 km/h 78 % 0.0 mm
20:07 16.2 °C 12.7 °C 1016.8 hPa Calm   9.7 km/h 80 % 0.0 mm
20:12 16.0 °C 12.6 °C 1016.8 hPa Calm   9.7 km/h 80 % 0.0 mm
20:17 15.9 °C 12.6 °C 1016.8 hPa North 3.2 km/h 9.7 km/h 81 % 0.0 mm
20:22 15.8 °C 12.7 °C 1016.8 hPa North 4.8 km/h 9.7 km/h 82 % 0.0 mm
20:27 15.7 °C 12.8 °C 1016.8 hPa North 3.2 km/h 9.7 km/h 83 % 0.0 mm
20:32 15.7 °C 13.0 °C 1016.8 hPa NNW 1.6 km/h 9.7 km/h 84 % 0.0 mm
20:37 15.6 °C 12.9 °C 1016.8 hPa Calm   9.7 km/h 84 % 0.0 mm
20:42 15.4 °C 12.9 °C 1016.8 hPa Calm   6.4 km/h 85 % 0.0 mm
20:47 15.3 °C 12.8 °C 1017.2 hPa Calm   4.8 km/h 85 % 0.0 mm
20:52 15.3 °C 12.8 °C 1017.2 hPa North 1.6 km/h 4.8 km/h 85 % 0.0 mm
20:57 15.2 °C 12.5 °C 1017.2 hPa Calm   4.8 km/h 84 % 0.0 mm
21:02 15.2 °C 12.3 °C 1017.2 hPa Calm   4.8 km/h 83 % 0.0 mm
21:12 15.2 °C 12.1 °C 1017.2 hPa Calm   4.8 km/h 82 % 0.0 mm
21:17 15.2 °C 12.1 °C 1017.2 hPa Calm   1.6 km/h 82 % 0.0 mm
21:22 15.2 °C 12.1 °C 1017.2 hPa NE 3.2 km/h 3.2 km/h 82 % 0.0 mm
21:27 15.1 °C 12.2 °C 1017.2 hPa Calm   4.8 km/h 83 % 0.0 mm
21:32 15.1 °C 12.2 °C 1017.2 hPa NNW 1.6 km/h 4.8 km/h 83 % 0.0 mm
21:37 15.0 °C 12.0 °C 1017.2 hPa NW 3.2 km/h 4.8 km/h 82 % 0.0 mm
21:47 14.9 °C 11.9 °C 1017.2 hPa Calm   4.8 km/h 82 % 0.0 mm
21:52 14.8 °C 11.8 °C 1017.2 hPa North 1.6 km/h 4.8 km/h 82 % 0.0 mm
21:57 14.7 °C 11.7 °C 1017.2 hPa Calm   4.8 km/h 82 % 0.0 mm
22:02 14.4 °C 11.5 °C 1017.2 hPa NNE 1.6 km/h 4.8 km/h 83 % 0.0 mm
22:12 14.2 °C 11.5 °C 1017.2 hPa Calm   3.2 km/h 84 % 0.0 mm
22:17 14.2 °C 11.4 °C 1017.2 hPa North 1.6 km/h 3.2 km/h 83 % 0.0 mm
22:22 14.1 °C 11.3 °C 1017.2 hPa NE 1.6 km/h 4.8 km/h 83 % 0.0 mm
22:32 13.9 °C 11.1 °C 1017.5 hPa Calm   4.8 km/h 83 % 0.0 mm
22:37 13.9 °C 11.1 °C 1017.5 hPa Calm   6.4 km/h 83 % 0.0 mm
22:47 13.6 °C 10.9 °C 1017.5 hPa Calm   3.2 km/h 84 % 0.0 mm
22:52 13.5 °C 10.8 °C 1017.5 hPa Calm   1.6 km/h 84 % 0.0 mm
22:57 13.4 °C 10.9 °C 1017.5 hPa Calm   1.6 km/h 85 % 0.0 mm
23:02 13.3 °C 10.8 °C 1017.5 hPa Calm   1.6 km/h 85 % 0.0 mm
23:07 13.2 °C 10.9 °C 1017.5 hPa Calm     86 % 0.0 mm
23:12 13.2 °C 10.7 °C 1017.5 hPa NE 3.2 km/h 3.2 km/h 85 % 0.0 mm
23:22 13.0 °C 10.5 °C 1017.5 hPa North 1.6 km/h 4.8 km/h 85 % 0.0 mm
23:32 12.8 °C 10.3 °C 1017.5 hPa North 3.2 km/h 4.8 km/h 85 % 0.0 mm
23:37 12.6 °C 10.1 °C 1017.5 hPa NE 6.4 km/h 6.4 km/h 85 % 0.0 mm
23:42 12.6 °C 10.3 °C 1017.5 hPa NE 3.2 km/h 6.4 km/h 86 % 0.0 mm
23:47 12.6 °C 10.3 °C 1017.5 hPa Calm   8.0 km/h 86 % 0.0 mm
23:52 12.5 °C 10.2 °C 1017.5 hPa NE 1.6 km/h 8.0 km/h 86 % 0.0 mm
23:57 12.4 °C 10.1 °C 1017.5 hPa NE 1.6 km/h 8.0 km/h 86 % 0.0 mm
Meteo18
Compliments of Weather Underground - 4 mb

Script developed by  Jim McMurry - jmcmurry@mwt.net Adapted for the template by  Wim van der Kuil - Leuven-Template.eu

You find our weather info also at:

European Weather Network

Weather Underground

Equipment we use:

Weather-station
Davis Vue

Weather-program
Meteohub

Weather-server
Raspberry PI 2 B+

Provider
1 and 1

Davis Vue

Meteohub

Raspberry PI 2 B+

1 and 1